createdAt,value
2023-11-18T00:00:03.702Z,-0.5
2023-11-18T00:16:04.500Z,-0.61
2023-11-18T00:31:05.494Z,-0.61
2023-11-18T00:46:05.981Z,-0.56
2023-11-18T01:00:01.434Z,-0.44
2023-11-18T01:16:02.375Z,-0.5
2023-11-18T01:31:02.855Z,-0.61
2023-11-18T01:46:03.596Z,-0.61
2023-11-18T02:00:03.632Z,-0.56
2023-11-18T02:16:01.603Z,-0.56
2023-11-18T02:31:05.365Z,-0.56
2023-11-18T02:46:05.866Z,-0.67
2023-11-18T03:00:01.641Z,-0.83
2023-11-18T03:16:02.491Z,-1
2023-11-18T03:31:03.469Z,-1.06
2023-11-18T03:46:04.188Z,-1.06
2023-11-18T04:00:04.908Z,-1.06
2023-11-18T04:16:05.906Z,-1.17
2023-11-18T04:31:01.599Z,-1.28
2023-11-18T04:46:02.057Z,-1.33
2023-11-18T05:00:02.695Z,-1.33
2023-11-18T05:16:03.259Z,-1.33
2023-11-18T05:31:04.156Z,-1.44
2023-11-18T05:46:04.627Z,-1.56
2023-11-18T06:00:05.308Z,-1.61
2023-11-18T06:16:06.053Z,-1.78
2023-11-18T06:31:01.950Z,-1.72
2023-11-18T06:46:02.761Z,-1.72
2023-11-18T07:00:03.475Z,-1.56
2023-11-18T07:16:04.165Z,-1.33
2023-11-18T07:31:04.617Z,-1
2023-11-18T07:46:05.484Z,0.11
2023-11-18T08:00:06.041Z,1.17
2023-11-18T08:16:02.227Z,2.17
2023-11-18T08:31:02.860Z,3.22
2023-11-18T08:46:03.328Z,4.22
2023-11-18T09:00:03.791Z,5
2023-11-18T09:16:04.237Z,5.94
2023-11-18T09:31:04.223Z,6.61
2023-11-18T09:46:05.244Z,7.39
2023-11-18T10:00:06.281Z,8.28
2023-11-18T10:16:01.132Z,9.06
2023-11-18T10:31:01.487Z,9.67
2023-11-18T10:46:02.455Z,10.17
2023-11-18T11:00:02.534Z,10.67
2023-11-18T11:16:03.898Z,10.94
2023-11-18T11:31:04.504Z,11.17
2023-11-18T11:46:05.135Z,11.39
2023-11-18T12:00:05.787Z,11.61
2023-11-18T12:16:01.685Z,11.78
2023-11-18T12:31:02.325Z,11.67
2023-11-18T12:46:02.183Z,11.44
2023-11-18T13:00:03.392Z,11.5
2023-11-18T13:16:03.186Z,11.67
2023-11-18T13:31:04.713Z,11.78
2023-11-18T13:46:04.365Z,11.44
2023-11-18T14:00:07.560Z,11.11
2023-11-18T14:16:19.286Z,10.67
2023-11-18T14:31:02.590Z,10.44
2023-11-18T14:46:03.179Z,10.06
2023-11-18T15:00:03.971Z,9.5
2023-11-18T15:16:04.700Z,8.72
2023-11-18T15:31:05.693Z,8.17
2023-11-18T15:46:06.005Z,7.44
2023-11-18T16:00:01.466Z,6.78
2023-11-18T16:16:02.053Z,5.89
2023-11-18T16:31:02.656Z,5.28
2023-11-18T17:53:29.438Z,2.67
2023-11-18T18:00:40.709Z,2.5
2023-11-18T18:16:02.016Z,2.28
2023-11-18T18:31:01.715Z,1.94
2023-11-18T18:46:02.933Z,1.61
2023-11-18T19:00:02.721Z,1.33
2023-11-18T19:16:04.320Z,1.11
2023-11-18T19:31:05.062Z,1
2023-11-18T19:46:06.715Z,1
2023-11-18T20:00:00.637Z,1
2023-11-18T20:16:02.095Z,1.06
2023-11-18T20:31:02.843Z,1.17
2023-11-18T20:46:03.762Z,1.17
2023-11-18T21:00:03.650Z,1.11
2023-11-18T21:16:05.246Z,1.17
2023-11-18T21:31:05.629Z,1.22
2023-11-18T21:46:01.211Z,1.28
2023-11-18T22:00:01.196Z,1.28
2023-11-18T22:16:02.757Z,1.22
2023-11-18T22:31:03.416Z,1.06
2023-11-18T22:46:04.335Z,0.94
2023-11-18T23:00:04.215Z,0.83
2023-11-18T23:16:06.040Z,0.72
2023-11-18T23:31:01.631Z,0.56
2023-11-18T23:46:02.693Z,0.5
